Time;durP1;ratioP1;P1;durP2;ratioP2;P2;SDS_P1;SDS_P2;PMS_P1;PMS_P2;Temp;Humidity;BMP_temperature;BMP_pressure;BME280_temperature;BME280_humidity;BME280_pressure;Samples;Min_cycle;Max_cycle;Signal;HPM_P1;HPM_P2
2021/12/24 00:01:09;;;;;;;109.80;58.85;;;;;;;5.75;100.00;100474.72;4990466;28;20022;-60
2021/12/24 00:03:35;;;;;;;108.40;60.53;;;;;;;5.80;100.00;100477.50;4998088;28;20106;-59
2021/12/24 00:06:03;;;;;;;100.90;58.22;;;;;;;5.81;100.00;100475.00;4998788;28;20522;-59
2021/12/24 00:08:28;;;;;;;106.80;60.45;;;;;;;5.81;100.00;100479.28;4996684;28;20054;-59
2021/12/24 00:11:02;;;;;;;98.40;56.63;;;;;;;5.82;100.00;100476.78;4990251;28;20030;-59
2021/12/24 00:13:33;;;;;;;100.18;60.25;;;;;;;5.84;100.00;100470.00;4990242;28;20027;-59
2021/12/24 00:18:38;;;;;;;92.78;57.80;;;;;;;5.87;100.00;100466.69;5021116;28;20026;-59
2021/12/24 00:37:23;;;;;;;81.53;51.53;;;;;;;5.95;100.00;100462.78;5006235;28;20184;-60
2021/12/24 00:40:10;;;;;;;81.75;52.92;;;;;;;5.97;100.00;100460.28;5012530;28;20307;-57
2021/12/24 00:42:35;;;;;;;78.55;52.15;;;;;;;5.98;100.00;100455.19;5008422;28;20037;-60
2021/12/24 00:45:01;;;;;;;80.35;54.28;;;;;;;5.98;100.00;100452.63;5004672;28;20096;-60
2021/12/24 00:47:27;;;;;;;81.00;53.97;;;;;;;6.00;100.00;100450.13;4997893;28;20037;-59
2021/12/24 00:49:53;;;;;;;79.53;52.97;;;;;;;5.99;100.00;100449.22;4993842;28;20033;-59
2021/12/24 00:52:33;;;;;;;80.03;55.38;;;;;;;6.03;100.00;100449.38;4997261;28;20026;-59
2021/12/24 00:55:09;;;;;;;79.55;54.65;;;;;;;6.07;100.00;100453.88;4993982;28;20495;-59
2021/12/24 00:57:38;;;;;;;75.68;52.88;;;;;;;6.06;100.00;100444.41;4995958;28;20105;-59
2021/12/24 01:00:09;;;;;;;80.85;54.72;;;;;;;6.07;100.00;100444.47;4994636;28;20065;-59
2021/12/24 01:02:34;;;;;;;;;;;;;;;6.08;100.00;100442.78;4993953;28;20410;-59
2021/12/24 01:05:00;;;;;;;79.50;52.67;;;;;;;6.09;100.00;100444.53;4997820;28;19917;-59
2021/12/24 01:07:25;;;;;;;81.80;54.50;;;;;;;6.11;100.00;100440.34;4993592;28;20110;-59
2021/12/24 01:09:50;;;;;;;80.65;53.38;;;;;;;6.13;100.00;100441.28;4993407;28;20069;-60
2021/12/24 01:12:16;;;;;;;77.78;52.95;;;;;;;6.15;100.00;100439.66;4995414;28;20069;-59
2021/12/24 01:14:43;;;;;;;78.75;55.45;;;;;;;6.16;100.00;100441.41;4993269;28;20031;-59
2021/12/24 01:17:31;;;;;;;83.65;53.05;;;;;;;6.17;100.00;100432.88;5008079;28;20108;-59
2021/12/24 01:20:00;;;;;;;84.40;55.20;;;;;;;6.18;100.00;100439.78;4998996;28;20487;-59
2021/12/24 01:25:21;;;;;;;85.20;56.85;;;;;;;6.26;100.00;100427.25;4993272;28;20026;-59
2021/12/24 01:28:02;;;;;;;91.05;58.20;;;;;;;6.29;100.00;100429.06;4992959;28;20026;-60
2021/12/24 01:38:33;;;;;;;93.93;58.25;;;;;;;6.33;100.00;100433.56;5002359;28;20041;-59
2021/12/24 01:43:28;;;;;;;99.00;63.05;;;;;;;6.35;100.00;100426.78;4992549;28;20117;-58
2021/12/24 01:45:56;;;;;;;102.72;65.22;;;;;;;6.37;100.00;100430.28;4992588;28;20026;-58
2021/12/24 01:48:22;;;;;;;115.85;66.80;;;;;;;6.39;100.00;100433.78;4992628;28;20034;-60
2021/12/24 01:50:50;;;;;;;115.38;69.30;;;;;;;6.41;100.00;100433.84;4992608;28;20386;-60
2021/12/24 01:53:17;;;;;;;119.32;70.60;;;;;;;6.41;100.00;100437.31;4992497;28;20038;-59
2021/12/24 01:55:44;;;;;;;125.93;74.40;;;;;;;6.43;100.00;100438.28;4994530;28;20085;-60
2021/12/24 01:58:10;;;;;;;134.20;76.30;;;;;;;6.45;100.00;100439.22;4997067;28;20085;-59
2021/12/24 02:00:40;;;;;;;128.48;73.70;;;;;;;6.47;100.00;100436.72;4995331;28;20026;-58
2021/12/24 02:03:07;;;;;;;125.43;75.55;;;;;;;6.49;100.00;100438.50;4992967;28;20522;-59
2021/12/24 02:05:33;;;;;;;137.23;76.65;;;;;;;6.55;100.00;100440.47;4997253;28;20037;-59
2021/12/24 02:08:00;;;;;;;133.30;76.78;;;;;;;6.56;100.00;100437.09;4992120;28;20192;-58
2021/12/24 02:10:26;;;;;;;132.10;75.60;;;;;;;6.57;100.00;100425.09;4992197;28;20022;-59
2021/12/24 02:12:52;;;;;;;126.28;73.78;;;;;;;6.59;100.00;100431.19;4995710;28;20021;-60
2021/12/24 02:15:31;;;;;;;130.75;76.03;;;;;;;6.62;100.00;100427.88;5007870;28;20232;-59
2021/12/24 02:28:40;;;;;;;125.93;70.50;;;;;;;6.70;100.00;100419.66;4992226;28;20053;-59
2021/12/24 02:31:10;;;;;;;127.25;72.85;;;;;;;6.68;100.00;100423.84;4991840;28;20383;-59
2021/12/24 02:33:35;;;;;;;127.10;72.80;;;;;;;6.69;100.00;100423.03;4992162;28;20035;-59
2021/12/24 02:36:02;;;;;;;126.13;73.72;;;;;;;6.69;100.00;100428.16;4993191;28;20363;-59
2021/12/24 02:38:28;;;;;;;125.75;74.90;;;;;;;6.69;100.00;100415.28;4991800;28;20030;-60
2021/12/24 02:40:53;;;;;;;133.82;77.15;;;;;;;6.71;100.00;100423.97;4991823;28;20026;-60
2021/12/24 02:43:21;;;;;;;138.55;77.03;;;;;;;6.72;100.00;100428.31;4991697;28;20113;-58
2021/12/24 02:45:48;;;;;;;134.85;75.25;;;;;;;6.72;100.00;100423.16;4998085;28;20057;-60
2021/12/24 02:56:19;;;;;;;154.30;83.10;;;;;;;6.74;100.00;100410.34;5002938;28;20320;-60
2021/12/24 02:58:48;;;;;;;159.30;84.65;;;;;;;6.77;100.00;100399.28;4991407;28;20489;-58
2021/12/24 03:01:18;;;;;;;171.27;86.35;;;;;;;6.78;100.00;100406.22;4991669;28;20558;-59
2021/12/24 03:03:48;;;;;;;168.43;89.57;;;;;;;6.80;100.00;100404.56;4991281;28;20026;-58
2021/12/24 03:06:24;;;;;;;180.85;89.47;;;;;;;6.80;100.00;100402.00;4991539;28;20018;-59
2021/12/24 03:08:50;;;;;;;181.93;93.45;;;;;;;6.83;100.00;100405.59;4991383;28;20019;-59
2021/12/24 03:11:15;;;;;;;196.27;95.47;;;;;;;6.85;100.00;100418.53;4991451;28;20171;-60
2021/12/24 03:13:42;;;;;;;183.93;94.15;;;;;;;6.84;100.00;100412.47;4997446;28;20462;-59
2021/12/24 03:16:08;;;;;;;188.25;92.32;;;;;;;6.84;100.00;100399.59;4990956;28;20051;-60
2021/12/24 03:18:38;;;;;;;202.57;99.07;;;;;;;6.87;100.00;100404.00;4991665;28;20022;-59
2021/12/24 03:21:18;;;;;;;202.63;97.97;;;;;;;6.87;100.00;100406.59;4993254;28;20034;-60
2021/12/24 03:24:33;;;;;;;199.32;95.97;;;;;;;6.88;100.00;100408.34;4993432;28;20022;-58
2021/12/24 03:26:34;;;;;;;194.82;95.50;;;;;;;6.86;100.00;100409.97;5003626;28;20041;-58
2021/12/24 03:28:59;;;;;;;194.63;94.97;;;;;;;6.84;100.00;100404.75;4990802;28;20084;-60
2021/12/24 03:31:25;;;;;;;200.68;97.75;;;;;;;6.86;100.00;100407.38;4996326;28;20288;-60
2021/12/24 03:33:53;;;;;;;202.52;95.32;;;;;;;6.88;100.00;100418.63;4990875;28;20451;-60
2021/12/24 03:36:20;;;;;;;194.95;93.35;;;;;;;6.90;100.00;100421.28;4990594;28;20034;-60
2021/12/24 03:42:08;;;;;;;191.77;90.65;;;;;;;6.91;100.00;100423.91;4999572;28;20549;-60
2021/12/24 03:44:42;;;;;;;177.60;91.63;;;;;;;6.92;100.00;100419.63;5000756;28;20033;-60
2021/12/24 03:47:12;;;;;;;176.18;87.93;;;;;;;6.92;100.00;100423.09;5009557;28;20140;-60
2021/12/24 03:49:50;;;;;;;181.75;91.15;;;;;;;6.93;100.00;100421.38;5004750;28;20037;-59
2021/12/24 03:55:00;;;;;;;182.07;86.65;;;;;;;6.94;100.00;100413.72;4990527;28;20049;-60
2021/12/24 03:57:30;;;;;;;170.57;84.57;;;;;;;6.96;100.00;100421.53;4993229;28;20050;-59
2021/12/24 03:59:58;;;;;;;174.23;82.47;;;;;;;6.95;100.00;100425.78;4990484;28;20030;-60
2021/12/24 04:02:24;;;;;;;163.73;82.07;;;;;;;6.96;100.00;100427.53;4990370;28;20105;-59
2021/12/24 04:04:49;;;;;;;171.55;81.18;;;;;;;6.97;100.00;100426.75;4990320;28;20048;-60
2021/12/24 04:07:16;;;;;;;154.90;78.28;;;;;;;6.97;100.00;100419.00;4990147;28;20113;-59
2021/12/24 04:09:49;;;;;;;146.50;75.00;;;;;;;6.99;100.00;100411.34;4991204;28;20019;-59
2021/12/24 04:12:15;;;;;;;157.75;76.22;;;;;;;7.03;100.00;100425.22;4990355;28;20053;-60
2021/12/24 04:14:41;;;;;;;158.02;77.57;;;;;;;7.01;100.00;100414.88;4991990;28;20030;-59
2021/12/24 04:17:07;;;;;;;143.68;70.95;;;;;;;7.02;100.00;100424.34;5009307;28;20076;-59
2021/12/24 04:24:51;;;;;;;161.23;72.88;;;;;;;7.01;100.00;100420.00;5001303;28;20033;-59
2021/12/24 04:25:05;;;;;;;134.60;67.13;;;;;;;7.02;100.00;100416.59;4997186;28;20124;-58
2021/12/24 04:27:31;;;;;;;127.82;66.18;;;;;;;7.04;100.00;100424.38;4990341;28;20022;-60
2021/12/24 04:30:12;;;;;;;119.93;63.17;;;;;;;7.03;100.00;100425.22;5002695;28;20456;-60
2021/12/24 04:33:05;;;;;;;123.55;60.97;;;;;;;7.02;100.00;100415.72;5008870;28;20094;-60
2021/12/24 04:51:32;;;;;;;81.95;41.67;;;;;;;6.99;100.00;100420.75;4990039;28;20070;-59
2021/12/24 05:04:48;;;;;;;65.10;33.95;;;;;;;6.99;100.00;100416.50;4967544;28;20031;-60
2021/12/24 05:09:58;;;;;;;56.15;34.25;;;;;;;6.97;100.00;100421.59;4967200;28;20480;-59
2021/12/24 05:12:23;;;;;;;51.95;32.65;;;;;;;6.97;100.00;100413.84;4967256;28;20109;-59
2021/12/24 05:14:49;;;;;;;62.85;34.10;;;;;;;7.00;100.00;100425.09;4967097;28;20039;-60
2021/12/24 05:22:30;;;;;;;51.25;33.17;;;;;;;6.98;100.00;100425.03;4970229;28;20111;-60
2021/12/24 05:24:56;;;;;;;58.63;32.92;;;;;;;6.99;100.00;100423.34;4969566;28;20030;-60
2021/12/24 05:27:22;;;;;;;52.55;33.38;;;;;;;6.99;100.00;100431.06;4970777;28;20042;-60
2021/12/24 05:29:47;;;;;;;54.92;33.63;;;;;;;6.99;100.00;100425.91;4970457;28;20451;-60
2021/12/24 05:32:12;;;;;;;51.72;32.45;;;;;;;6.99;100.00;100431.94;4970141;28;20154;-60
2021/12/24 05:34:38;;;;;;;50.22;31.60;;;;;;;6.99;100.00;100434.53;5005524;28;20038;-59
2021/12/24 05:37:03;;;;;;;55.83;30.85;;;;;;;6.97;100.00;100434.47;5011597;28;20079;-58
2021/12/24 05:39:29;;;;;;;49.20;31.17;;;;;;;6.96;100.00;100432.69;5007986;28;20700;-60
2021/12/24 05:41:54;;;;;;;49.25;30.38;;;;;;;6.96;100.00;100437.00;4993284;28;20406;-59
2021/12/24 05:44:20;;;;;;;51.03;28.98;;;;;;;6.95;100.00;100436.09;4992656;28;20022;-60
2021/12/24 05:46:46;;;;;;;51.22;27.75;;;;;;;6.97;100.00;100434.47;4992774;28;20032;-59
2021/12/24 05:49:13;;;;;;;51.63;29.08;;;;;;;6.96;100.00;100439.56;4994897;28;20382;-59
2021/12/24 05:51:38;;;;;;;48.78;27.83;;;;;;;6.95;100.00;100445.50;4992743;28;20030;-60
2021/12/24 05:54:04;;;;;;;58.15;28.13;;;;;;;6.94;100.00;100434.31;5000902;28;20022;-59
2021/12/24 05:56:29;;;;;;;46.20;27.60;;;;;;;6.92;100.00;100443.72;4992287;28;20034;-60
2021/12/24 05:58:55;;;;;;;51.47;27.52;;;;;;;6.91;100.00;100441.94;4992673;28;20031;-59
2021/12/24 06:01:21;;;;;;;51.15;26.23;;;;;;;6.91;100.00;100444.50;4992475;28;20027;-60
2021/12/24 06:03:47;;;;;;;38.05;24.85;;;;;;;6.93;100.00;100447.16;4992566;28;20026;-60
2021/12/24 06:06:13;;;;;;;42.55;24.67;;;;;;;6.92;100.00;100445.41;4992656;28;20042;-59
2021/12/24 06:08:38;;;;;;;44.33;25.13;;;;;;;6.92;100.00;100448.88;4994091;28;20042;-60
2021/12/24 06:11:04;;;;;;;39.05;22.90;;;;;;;6.91;100.00;100444.50;4992388;28;20105;-59
2021/12/24 06:13:30;;;;;;;40.28;23.63;;;;;;;6.90;100.00;100444.44;5005352;28;20466;-60
2021/12/24 06:15:55;;;;;;;40.67;22.50;;;;;;;6.91;100.00;100447.09;4998442;28;20084;-59
2021/12/24 06:18:29;;;;;;;39.00;21.58;;;;;;;6.90;100.00;100442.75;4992556;28;20053;-59
2021/12/24 06:20:58;;;;;;;38.90;23.65;;;;;;;6.90;100.00;100447.91;5004879;28;20482;-59
2021/12/24 06:23:25;;;;;;;38.08;21.35;;;;;;;6.89;100.00;100438.41;5003173;28;20142;-60
2021/12/24 06:25:53;;;;;;;34.58;21.65;;;;;;;6.88;100.00;100439.25;5004794;28;20032;-59
2021/12/24 06:28:19;;;;;;;43.58;21.38;;;;;;;6.89;100.00;100448.72;5010895;28;20025;-58
2021/12/24 06:30:45;;;;;;;38.47;22.13;;;;;;;6.90;100.00;100453.06;5004394;28;20150;-60
2021/12/24 06:33:11;;;;;;;35.25;20.25;;;;;;;6.88;100.00;100449.53;4996161;28;20030;-60
2021/12/24 06:35:37;;;;;;;36.40;20.85;;;;;;;6.89;100.00;100440.13;4991882;28;20018;-59
2021/12/24 06:38:04;;;;;;;34.80;20.25;;;;;;;6.88;100.00;100440.94;4991712;28;20188;-59
2021/12/24 06:40:29;;;;;;;35.53;20.35;;;;;;;6.89;100.00;100451.28;5006002;28;20033;-59
2021/12/24 06:42:55;;;;;;;34.83;20.25;;;;;;;6.89;100.00;100451.28;5010492;28;20134;-59
2021/12/24 06:45:24;;;;;;;33.58;20.02;;;;;;;6.89;100.00;100451.28;5005039;28;20249;-59
2021/12/24 06:47:51;;;;;;;30.80;20.02;;;;;;;6.90;100.00;100450.50;4993997;28;20379;-59
2021/12/24 06:50:17;;;;;;;31.48;19.50;;;;;;;6.91;100.00;100449.66;4991561;28;20018;-58
2021/12/24 06:52:42;;;;;;;35.85;19.65;;;;;;;6.90;100.00;100450.50;4993943;28;20166;-59
2021/12/24 06:55:08;;;;;;;37.90;18.00;;;;;;;6.91;100.00;100453.94;4991119;28;20077;-60
2021/12/24 06:57:33;;;;;;;32.72;18.10;;;;;;;6.90;100.00;100447.91;4991340;28;20305;-59
2021/12/24 06:59:59;;;;;;;33.08;18.98;;;;;;;6.91;100.00;100454.81;4991362;28;20053;-59
2021/12/24 07:02:24;;;;;;;27.92;17.45;;;;;;;6.91;100.00;100461.66;4991253;28;20034;-59
2021/12/24 07:04:49;;;;;;;33.17;17.30;;;;;;;6.89;100.00;100456.44;4991260;28;20022;-59
2021/12/24 07:07:15;;;;;;;33.65;19.25;;;;;;;6.88;100.00;100454.69;4991979;28;20018;-59
2021/12/24 07:09:42;;;;;;;31.25;17.60;;;;;;;6.90;100.00;100447.03;4991376;28;20394;-57
2021/12/24 07:12:12;;;;;;;29.08;17.70;;;;;;;6.88;100.00;100441.81;4991413;28;20121;-60
2021/12/24 07:14:38;;;;;;;30.65;17.75;;;;;;;6.89;100.00;100428.09;4994940;28;20026;-59
2021/12/24 07:17:04;;;;;;;33.92;18.67;;;;;;;6.89;100.00;100437.56;4991308;28;20018;-59
2021/12/24 07:19:29;;;;;;;34.58;19.63;;;;;;;6.88;100.00;100434.09;4991376;28;20109;-59
2021/12/24 07:21:55;;;;;;;40.10;20.13;;;;;;;6.88;100.00;100439.25;4995427;28;20561;-59
2021/12/24 07:24:20;;;;;;;37.10;20.40;;;;;;;6.86;100.00;100443.44;4995233;28;20019;-59
2021/12/24 07:26:46;;;;;;;34.10;20.67;;;;;;;6.87;100.00;100445.22;4991068;28;20037;-60
2021/12/24 07:29:11;;;;;;;40.83;20.90;;;;;;;6.86;100.00;100446.03;4990945;28;20026;-59
2021/12/24 07:31:37;;;;;;;35.20;20.65;;;;;;;6.86;100.00;100451.19;4990937;28;20294;-58
2021/12/24 07:34:02;;;;;;;33.60;19.85;;;;;;;6.87;100.00;100463.25;4995481;28;20034;-58
2021/12/24 07:36:28;;;;;;;34.35;21.92;;;;;;;6.88;100.00;100449.53;4990637;28;20028;-58
2021/12/24 07:38:53;;;;;;;35.75;19.60;;;;;;;6.88;100.00;100454.69;4992884;28;20085;-60
2021/12/24 07:41:19;;;;;;;34.22;20.25;;;;;;;6.87;100.00;100455.53;4990232;28;20026;-60
2021/12/24 07:43:44;;;;;;;41.58;22.60;;;;;;;6.88;100.00;100457.28;4992317;28;20032;-60
2021/12/24 07:46:09;;;;;;;40.80;22.73;;;;;;;6.89;100.00;100459.03;4991503;28;20073;-60
2021/12/24 07:48:43;;;;;;;34.90;23.35;;;;;;;6.90;100.00;100463.38;4990464;28;20118;-59
2021/12/24 07:53:35;;;;;;;41.58;24.90;;;;;;;6.90;100.00;100463.38;4996864;28;20034;-60
2021/12/24 07:56:00;;;;;;;41.17;26.23;;;;;;;6.89;100.00;100451.28;4991989;28;20409;-60
2021/12/24 07:58:25;;;;;;;38.75;25.13;;;;;;;6.90;100.00;100465.06;5000026;28;20034;-59
2021/12/24 08:00:51;;;;;;;45.33;25.73;;;;;;;6.89;100.00;100466.75;5005321;28;20545;-60
2021/12/24 08:03:17;;;;;;;42.67;24.90;;;;;;;6.89;100.00;100466.75;4994374;28;20461;-60
2021/12/24 08:05:45;;;;;;;41.72;25.17;;;;;;;6.89;100.00;100465.88;4996241;28;20165;-60
2021/12/24 08:08:11;;;;;;;45.83;24.92;;;;;;;6.88;100.00;100454.69;4990685;28;20478;-60
2021/12/24 08:10:37;;;;;;;40.17;23.45;;;;;;;6.87;100.00;100442.66;4994249;28;20025;-60
2021/12/24 08:13:04;;;;;;;38.75;24.95;;;;;;;6.89;100.00;100446.13;4997289;28;20026;-60
2021/12/24 08:15:30;;;;;;;36.38;23.65;;;;;;;6.88;100.00;100452.13;4995657;28;20030;-60
2021/12/24 08:17:56;;;;;;;37.67;23.35;;;;;;;6.89;100.00;100450.44;4990157;28;20065;-60
2021/12/24 08:20:24;;;;;;;38.10;23.50;;;;;;;6.91;100.00;100462.53;4994184;28;20565;-59
2021/12/24 08:22:54;;;;;;;40.58;22.60;;;;;;;6.88;100.00;100453.81;5002629;28;20062;-59
2021/12/24 08:25:20;;;;;;;42.20;23.42;;;;;;;6.88;100.00;100461.53;4993414;28;20378;-60
2021/12/24 08:27:46;;;;;;;43.60;22.70;;;;;;;6.87;100.00;100452.06;4993844;28;20030;-60
2021/12/24 08:30:12;;;;;;;41.22;23.13;;;;;;;6.86;100.00;100458.91;5004788;28;20092;-59
2021/12/24 08:32:40;;;;;;;33.70;21.67;;;;;;;6.86;100.00;100461.47;4993914;28;20040;-58
2021/12/24 08:35:10;;;;;;;45.90;22.08;;;;;;;6.86;100.00;100451.19;4996620;28;20034;-59
2021/12/24 08:37:35;;;;;;;35.35;22.50;;;;;;;6.87;100.00;100462.38;4994172;28;20026;-58
2021/12/24 08:40:01;;;;;;;32.60;20.02;;;;;;;6.87;100.00;100452.94;4991863;28;20486;-58
2021/12/24 08:42:26;;;;;;;41.05;21.58;;;;;;;6.88;100.00;100449.53;4994294;28;20038;-59
2021/12/24 08:44:52;;;;;;;36.47;20.38;;;;;;;6.89;100.00;100451.28;4999188;28;20046;-60
2021/12/24 08:47:17;;;;;;;34.88;20.90;;;;;;;6.90;100.00;100445.34;5002816;28;20084;-58
2021/12/24 08:49:43;;;;;;;37.28;20.50;;;;;;;6.91;100.00;100444.50;5004756;28;20037;-58
2021/12/24 08:52:08;;;;;;;35.38;18.73;;;;;;;6.93;100.00;100437.72;5029651;28;20042;-58
2021/12/24 08:54:34;;;;;;;37.55;20.05;;;;;;;6.94;100.00;100439.47;4996115;28;20038;-59
2021/12/24 08:56:59;;;;;;;33.63;19.42;;;;;;;6.95;100.00;100441.25;5007341;28;20498;-59
2021/12/24 08:59:25;;;;;;;35.95;20.02;;;;;;;6.96;100.00;100437.84;5007286;28;20347;-59
2021/12/24 09:01:51;;;;;;;33.83;20.55;;;;;;;6.99;100.00;100441.38;4993565;28;20035;-59
2021/12/24 09:04:17;;;;;;;38.25;20.83;;;;;;;6.99;100.00;100443.94;4995577;28;20022;-60
2021/12/24 09:06:42;;;;;;;34.80;21.30;;;;;;;7.01;100.00;100440.63;5007998;28;20033;-60
2021/12/24 09:09:10;;;;;;;35.22;21.50;;;;;;;7.02;100.00;100444.94;5002626;28;20045;-58
2021/12/24 09:11:37;;;;;;;35.05;20.98;;;;;;;7.03;100.00;100438.09;5009333;28;20084;-59
2021/12/24 09:14:03;;;;;;;38.60;22.80;;;;;;;7.03;100.00;100443.25;5008166;28;20025;-59
2021/12/24 09:16:28;;;;;;;39.40;22.08;;;;;;;7.05;100.00;100444.22;5007649;28;20076;-60
2021/12/24 09:19:01;;;;;;;36.75;22.35;;;;;;;7.05;100.00;100447.63;5000052;28;20042;-60
2021/12/24 09:21:27;;;;;;;34.97;23.40;;;;;;;7.06;100.00;100438.22;5008059;28;20057;-59
2021/12/24 09:23:54;;;;;;;36.70;22.77;;;;;;;7.07;100.00;100434.81;5006639;28;20034;-59
2021/12/24 09:26:27;;;;;;;42.42;24.50;;;;;;;7.07;100.00;100427.09;5006792;28;20057;-60
2021/12/24 09:28:52;;;;;;;40.05;23.98;;;;;;;7.09;100.00;100425.44;5000380;28;20044;-60
2021/12/24 09:31:18;;;;;;;41.40;24.95;;;;;;;7.11;100.00;100430.66;4998750;28;20405;-60
2021/12/24 09:33:43;;;;;;;39.78;25.15;;;;;;;7.11;100.00;100430.66;4999524;28;20029;-60
2021/12/24 09:36:09;;;;;;;47.58;25.63;;;;;;;7.12;100.00;100433.31;5002966;28;20048;-60
2021/12/24 09:38:35;;;;;;;42.05;24.90;;;;;;;7.13;100.00;100441.91;4997652;28;20026;-59
2021/12/24 09:41:00;;;;;;;45.50;25.40;;;;;;;7.13;100.00;100435.06;5001133;28;20036;-58
2021/12/24 09:43:25;;;;;;;49.33;25.63;;;;;;;7.13;100.00;100440.22;4998264;28;20034;-60
2021/12/24 09:45:51;;;;;;;49.13;25.17;;;;;;;7.14;100.00;100444.53;5005480;28;20091;-60
2021/12/24 09:48:17;;;;;;;38.20;23.17;;;;;;;7.13;100.00;100435.06;4994353;28;20038;-59
2021/12/24 09:50:42;;;;;;;38.10;22.40;;;;;;;7.13;100.00;100442.81;5004634;28;20417;-59
2021/12/24 09:53:08;;;;;;;44.00;22.58;;;;;;;7.14;100.00;100435.97;4999538;28;20092;-59
2021/12/24 09:55:33;;;;;;;39.65;23.58;;;;;;;7.13;100.00;100435.06;5003474;28;20034;-59
2021/12/24 09:57:59;;;;;;;40.47;23.70;;;;;;;7.14;100.00;100439.41;4997805;28;20463;-59
2021/12/24 10:00:25;;;;;;;41.78;23.05;;;;;;;7.14;100.00;100441.13;5002891;28;20032;-59
2021/12/24 10:02:54;;;;;;;40.95;24.23;;;;;;;7.14;100.00;100436.81;5002984;28;20088;-59
2021/12/24 10:05:37;;;;;;;36.92;23.30;;;;;;;7.15;100.00;100428.28;4998020;28;20129;-58
2021/12/24 10:08:18;;;;;;;40.35;22.48;;;;;;;7.16;100.00;100434.31;5002607;28;20068;-59
2021/12/24 10:14:05;;;;;;;40.78;23.85;;;;;;;7.17;100.00;100439.53;5004453;28;20044;-58
2021/12/24 10:16:30;;;;;;;47.13;25.85;;;;;;;7.18;100.00;100432.66;5007289;28;20112;-59
2021/12/24 10:19:00;;;;;;;41.08;25.02;;;;;;;7.18;100.00;100430.97;5007896;28;20026;-59
2021/12/24 10:21:28;;;;;;;47.42;26.25;;;;;;;7.17;100.00;100426.66;5005868;28;20060;-60
2021/12/24 10:23:56;;;;;;;50.03;28.77;;;;;;;7.20;100.00;100423.31;5003962;28;20034;-59
2021/12/24 10:26:44;;;;;;;49.40;29.23;;;;;;;7.22;100.00;100421.66;5002768;28;20057;-58
2021/12/24 10:29:21;;;;;;;48.70;29.08;;;;;;;7.25;100.00;100428.66;5000265;28;20033;-58
2021/12/24 10:31:53;;;;;;;50.42;30.90;;;;;;;7.27;100.00;100421.84;5003188;28;20028;-59
2021/12/24 10:34:18;;;;;;;46.95;30.63;;;;;;;7.29;100.00;100415.94;5009036;28;20030;-59
2021/12/24 10:36:52;;;;;;;47.20;30.05;;;;;;;7.31;100.00;100419.44;5005848;28;20041;-59
2021/12/24 10:39:19;;;;;;;40.25;28.58;;;;;;;7.33;100.00;100419.50;5005619;28;20470;-60
2021/12/24 10:41:47;;;;;;;47.13;30.45;;;;;;;7.35;100.00;100419.56;4999369;28;20085;-59
2021/12/24 10:44:22;;;;;;;51.75;28.48;;;;;;;7.37;100.00;100421.41;5003577;28;20037;-59
2021/12/24 10:47:00;;;;;;;44.88;30.13;;;;;;;7.38;100.00;100414.53;4999158;28;20034;-59
2021/12/24 10:52:27;;;;;;;46.20;27.50;;;;;;;7.41;100.00;100407.78;4998970;28;20045;-59
2021/12/24 10:54:59;;;;;;;44.45;27.27;;;;;;;7.43;100.00;100407.84;4993249;28;20023;-60
2021/12/24 10:57:28;;;;;;;46.67;28.52;;;;;;;7.45;100.00;100411.34;4991777;28;20125;-60
2021/12/24 10:59:57;;;;;;;45.03;28.73;;;;;;;7.47;100.00;100408.84;5001326;28;20050;-60
2021/12/24 11:02:29;;;;;;;53.22;33.30;;;;;;;7.51;100.00;100405.56;5006134;28;20495;-60
2021/12/24 11:04:55;;;;;;;54.13;33.65;;;;;;;7.52;100.00;100403.03;5001069;28;20022;-59
2021/12/24 11:07:37;;;;;;;46.05;32.95;;;;;;;7.54;100.00;100408.25;4994071;28;20037;-59
2021/12/24 11:10:24;;;;;;;54.42;35.58;;;;;;;7.54;100.00;100406.56;4992398;28;20414;-59
2021/12/24 11:13:07;;;;;;;57.97;38.45;;;;;;;7.55;100.00;100412.59;5002839;28;20026;-60
2021/12/24 11:15:36;;;;;;;53.78;35.83;;;;;;;7.54;100.00;100410.81;5001273;28;20041;-59
2021/12/24 11:18:08;;;;;;;59.97;40.22;;;;;;;7.53;100.00;100403.91;5003588;28;20076;-60
2021/12/24 11:20:35;;;;;;;62.20;40.28;;;;;;;7.52;100.00;100408.19;5001177;28;20080;-60
2021/12/24 11:23:02;;;;;;;61.33;40.42;;;;;;;7.54;100.00;100405.66;5000455;28;20482;-59
2021/12/24 11:25:31;;;;;;;59.78;40.88;;;;;;;7.53;100.00;100409.97;4994992;28;20049;-60
2021/12/24 11:27:57;;;;;;;62.80;42.30;;;;;;;7.54;100.00;100403.97;4997120;28;20033;-60
2021/12/24 11:30:25;;;;;;;63.20;41.00;;;;;;;7.53;100.00;100409.06;4998311;28;20033;-60
2021/12/24 11:32:50;;;;;;;62.97;42.30;;;;;;;7.53;100.00;100409.06;4991072;28;20073;-60
2021/12/24 11:35:16;;;;;;;71.00;42.67;;;;;;;7.53;100.00;100403.91;4991257;28;20035;-58
2021/12/24 11:37:46;;;;;;;57.63;41.47;;;;;;;7.52;100.00;100407.34;4992296;28;20111;-60
2021/12/24 11:40:15;;;;;;;70.43;42.65;;;;;;;7.51;100.00;100416.75;4999620;28;20032;-60
2021/12/24 11:42:51;;;;;;;67.60;42.20;;;;;;;7.52;100.00;100412.50;4991815;28;20084;-59
2021/12/24 11:45:20;;;;;;;63.28;43.17;;;;;;;7.54;100.00;100419.44;4996930;28;20064;-58
2021/12/24 11:47:45;;;;;;;61.83;41.88;;;;;;;7.54;100.00;100411.72;5004177;28;20109;-59
2021/12/24 11:50:11;;;;;;;67.32;44.58;;;;;;;7.56;100.00;100416.91;4999022;28;20116;-59
2021/12/24 11:52:37;;;;;;;62.40;43.00;;;;;;;7.57;100.00;100418.69;5010084;28;20053;-60
2021/12/24 11:55:03;;;;;;;64.20;41.40;;;;;;;7.59;100.00;100413.59;4996875;28;20022;-59
2021/12/24 11:57:28;;;;;;;71.10;43.65;;;;;;;7.60;100.00;100400.75;4997512;28;20430;-60
2021/12/24 11:59:54;;;;;;;64.60;41.88;;;;;;;7.60;100.00;100405.91;5008278;28;20065;-58
2021/12/24 12:02:55;;;;;;;69.47;44.05;;;;;;;7.62;100.00;100409.44;5009036;28;20041;-59
2021/12/24 12:05:23;;;;;;;55.53;38.50;;;;;;;7.63;100.00;100398.28;4987492;28;20026;-58
2021/12/24 12:07:50;;;;;;;64.90;42.25;;;;;;;7.64;100.00;100402.63;4987608;28;20092;-58
2021/12/24 12:10:56;;;;;;;67.30;42.05;;;;;;;7.64;100.00;100405.22;4987140;28;20034;-58
2021/12/24 12:13:36;;;;;;;61.50;41.00;;;;;;;7.66;100.00;100398.38;4987274;28;20038;-60
2021/12/24 12:16:02;;;;;;;67.20;43.13;;;;;;;7.68;100.00;100404.47;4987386;28;20034;-59
2021/12/24 12:18:33;;;;;;;60.15;42.03;;;;;;;7.69;100.00;100401.09;4987432;28;20034;-58
2021/12/24 12:21:37;;;;;;;;;;;;;;;7.71;100.00;100402.84;4987670;28;20526;-59
2021/12/24 12:24:57;;;;;;;56.72;38.58;;;;;;;7.73;100.00;100391.78;4967650;28;19977;-60
2021/12/24 12:26:52;;;;;;;57.40;40.42;;;;;;;7.75;100.00;100394.41;4967430;28;20399;-58
2021/12/24 12:29:28;;;;;;;63.95;39.78;;;;;;;7.75;100.00;100389.25;4970667;28;20163;-59
2021/12/24 12:31:53;;;;;;;56.08;38.20;;;;;;;7.76;100.00;100381.56;4971511;28;20043;-59
2021/12/24 12:34:38;;;;;;;56.92;37.70;;;;;;;7.77;100.00;100382.44;4988052;28;20734;-59
2021/12/24 12:37:40;;;;;;;60.92;38.30;;;;;;;7.80;100.00;100387.72;4971508;28;20039;-59
2021/12/24 12:40:27;;;;;;;50.78;36.05;;;;;;;7.82;100.00;100383.50;4956313;28;20047;-60
2021/12/24 12:43:07;;;;;;;51.10;34.45;;;;;;;7.81;100.00;100389.44;4952398;29;20039;-60
2021/12/24 12:45:32;;;;;;;50.15;35.25;;;;;;;7.82;100.00;100388.66;4954553;28;20071;-60
2021/12/24 12:48:10;;;;;;;48.85;34.60;;;;;;;7.83;100.00;100392.97;4971471;28;20205;-57
2021/12/24 12:50:37;;;;;;;54.40;34.65;;;;;;;7.85;100.00;100391.31;4971648;28;20294;-59
2021/12/24 12:53:25;;;;;;;51.72;33.60;;;;;;;7.86;100.00;100393.06;4971570;28;20198;-60
2021/12/24 12:56:12;;;;;;;54.58;35.92;;;;;;;7.86;100.00;100385.34;4970668;28;20035;-60
2021/12/24 12:58:39;;;;;;;55.13;36.47;;;;;;;7.85;100.00;100391.31;4971124;28;20141;-60